Time;durP1;ratioP1;P1;durP2;ratioP2;P2;SDS_P1;SDS_P2;PMS_P1;PMS_P2;Temp;Humidity;BMP_temperature;BMP_pressure;BME280_temperature;BME280_humidity;BME280_pressure;Samples;Min_cycle;Max_cycle;Signal;HPM_P1;HPM_P2
2022/10/21 00:01:01;;;;;;;20.87;12.40;;;21.70;99.90;;;;;;5055169;28;20281;-74
2022/10/21 00:03:28;;;;;;;21.40;12.77;;;21.60;99.90;;;;;;5073045;28;20179;-73
2022/10/21 00:05:56;;;;;;;22.40;12.73;;;21.50;99.90;;;;;;5076777;28;20213;-74
2022/10/21 00:08:24;;;;;;;22.40;13.23;;;21.70;99.90;;;;;;5091320;28;20189;-74
2022/10/21 00:10:57;;;;;;;15.93;12.10;;;21.80;99.90;;;;;;5080918;28;20266;-74
2022/10/21 00:13:25;;;;;;;18.63;12.43;;;21.70;99.90;;;;;;5089072;28;20167;-74
2022/10/21 00:16:02;;;;;;;21.53;13.53;;;21.70;99.90;;;;;;5082475;28;20651;-74
2022/10/21 00:18:32;;;;;;;19.03;12.17;;;21.80;99.90;;;;;;5083359;28;20256;-74
2022/10/21 00:21:00;;;;;;;18.60;12.37;;;21.90;99.90;;;;;;5085206;28;20234;-74
2022/10/21 00:23:28;;;;;;;18.93;12.50;;;21.90;99.90;;;;;;5083083;28;20180;-73
2022/10/21 00:25:59;;;;;;;20.47;12.33;;;21.90;99.90;;;;;;5090982;28;20173;-73
2022/10/21 00:28:29;;;;;;;18.57;13.03;;;21.80;99.90;;;;;;5083448;28;20205;-74
2022/10/21 00:30:57;;;;;;;22.77;13.43;;;21.70;99.90;;;;;;5092918;28;20178;-74
2022/10/21 00:33:26;;;;;;;19.83;13.13;;;21.60;99.90;;;;;;5073476;28;20194;-73
2022/10/21 00:35:58;;;;;;;16.80;11.80;;;21.50;99.90;;;;;;5092039;28;20171;-73
2022/10/21 00:38:25;;;;;;;21.43;13.07;;;21.40;99.90;;;;;;5092600;28;20210;-74
2022/10/21 00:40:53;;;;;;;24.23;12.90;;;21.50;99.90;;;;;;5092772;28;20199;-73
2022/10/21 00:43:20;;;;;;;21.27;13.40;;;21.60;99.90;;;;;;5087936;28;20191;-74
2022/10/21 00:45:53;;;;;;;19.23;12.77;;;21.60;99.90;;;;;;5072177;28;20184;-73
2022/10/21 00:48:34;;;;;;;19.90;13.00;;;21.70;99.90;;;;;;5091237;28;20210;-73
2022/10/21 00:51:06;;;;;;;19.63;12.20;;;21.90;99.90;;;;;;5078151;28;20191;-74
2022/10/21 00:53:36;;;;;;;20.20;13.17;;;22.00;99.90;;;;;;5072097;28;20195;-75
2022/10/21 00:56:12;;;;;;;17.33;11.50;;;22.40;99.90;;;;;;5072376;28;20262;-74
2022/10/21 00:58:40;;;;;;;17.20;10.93;;;22.80;99.90;;;;;;5072098;28;20223;-74
2022/10/21 01:01:08;;;;;;;20.70;12.83;;;22.70;99.90;;;;;;5073835;28;20233;-75
2022/10/21 01:03:36;;;;;;;19.37;14.50;;;22.60;99.90;;;;;;5091953;28;20182;-74
2022/10/21 01:06:08;;;;;;;17.60;12.50;;;22.60;99.90;;;;;;5073844;28;20265;-74
2022/10/21 01:08:36;;;;;;;14.20;12.03;;;22.80;99.90;;;;;;5072059;28;20217;-73
2022/10/21 01:11:06;;;;;;;15.30;12.03;;;23.00;99.90;;;;;;5071760;28;20179;-73
2022/10/21 01:13:53;;;;;;;12.40;10.57;;;23.10;99.90;;;;;;5071744;28;20513;-73
2022/10/21 01:16:56;;;;;;;14.93;11.83;;;23.50;99.90;;;;;;5072865;28;20234;-73
2022/10/21 01:19:29;;;;;;;12.00;10.77;;;23.90;99.90;;;;;;5087492;28;20287;-73
2022/10/21 01:22:26;;;;;;;12.30;9.50;;;24.20;99.90;;;;;;5091931;28;20235;-74
2022/10/21 01:25:11;;;;;;;12.17;10.50;;;24.10;99.90;;;;;;5089994;28;20175;-74
2022/10/21 01:28:13;;;;;;;17.40;10.13;;;23.70;99.90;;;;;;5079412;28;20271;-74
2022/10/21 01:31:28;;;;;;;13.60;10.63;;;23.60;99.90;;;;;;5080848;28;20196;-74
2022/10/21 01:34:19;;;;;;;14.30;11.27;;;23.50;99.90;;;;;;5073320;28;20179;-73
2022/10/21 01:37:04;;;;;;;14.17;11.30;;;23.50;99.90;;;;;;5086673;28;20193;-73
2022/10/21 01:39:47;;;;;;;11.63;8.97;;;23.50;99.90;;;;;;5075678;28;20214;-74
2022/10/21 01:42:29;;;;;;;15.73;11.53;;;23.40;99.90;;;;;;5066478;28;20271;-73
2022/10/21 01:45:10;;;;;;;14.20;10.70;;;23.60;99.90;;;;;;5067583;28;20241;-74
2022/10/21 01:47:42;;;;;;;11.43;9.73;;;24.30;99.90;;;;;;5079733;28;20215;-74
2022/10/21 01:50:29;;;;;;;13.57;10.23;;;24.70;99.90;;;;;;5071343;28;20182;-75
2022/10/21 01:53:02;;;;;;;12.30;10.40;;;25.00;99.90;;;;;;5076282;28;20184;-73
2022/10/21 01:55:32;;;;;;;10.23;8.60;;;25.20;99.90;;;;;;5071412;28;20514;-74
2022/10/21 01:58:19;;;;;;;8.67;7.27;;;24.90;99.90;;;;;;5087283;28;20237;-74
2022/10/21 02:00:49;;;;;;;10.67;7.93;;;24.40;99.90;;;;;;5090664;28;20226;-73
2022/10/21 02:03:38;;;;;;;9.43;7.10;;;24.20;99.90;;;;;;5086565;28;20558;-74
2022/10/21 02:06:06;;;;;;;9.47;7.20;;;24.20;99.90;;;;;;5091625;28;20218;-73
2022/10/21 02:08:33;;;;;;;12.10;7.93;;;24.20;99.90;;;;;;5091358;28;20266;-74
2022/10/21 02:11:05;;;;;;;10.37;8.07;;;24.10;99.90;;;;;;5080492;28;20194;-74
2022/10/21 02:13:55;;;;;;;9.07;6.70;;;24.30;99.90;;;;;;5072250;28;20176;-75
2022/10/21 02:16:29;;;;;;;8.27;7.00;;;24.50;99.90;;;;;;5052980;28;20206;-74
2022/10/21 02:18:58;;;;;;;7.93;6.97;;;24.60;99.90;;;;;;5075009;28;20215;-73
2022/10/21 02:21:33;;;;;;;10.37;6.97;;;24.70;99.90;;;;;;5075052;28;20183;-74
2022/10/21 02:24:16;;;;;;;7.47;6.20;;;25.00;99.90;;;;;;5074910;28;20179;-74
2022/10/21 02:26:44;;;;;;;6.87;5.80;;;25.20;99.90;;;;;;5075124;28;20531;-75
2022/10/21 02:29:13;;;;;;;8.43;5.80;;;25.10;99.90;;;;;;5069863;28;20180;-73
2022/10/21 02:31:43;;;;;;;12.73;6.60;;;25.10;99.90;;;;;;5092530;28;20202;-74
2022/10/21 02:34:53;;;;;;;8.53;6.53;;;25.20;99.90;;;;;;5093446;28;20581;-74
2022/10/21 02:37:39;;;;;;;8.87;5.97;;;25.00;99.90;;;;;;5093861;28;20187;-74
2022/10/21 02:40:14;;;;;;;7.50;5.97;;;25.00;99.90;;;;;;5072521;28;20222;-74
2022/10/21 02:42:46;;;;;;;10.70;6.50;;;25.00;99.90;;;;;;5076371;28;20189;-74
2022/10/21 02:45:15;;;;;;;10.10;5.80;;;25.30;99.90;;;;;;5095241;28;20175;-74
2022/10/21 02:47:47;;;;;;;7.97;5.90;;;25.20;99.90;;;;;;5095097;28;20198;-75
2022/10/21 02:50:15;;;;;;;7.30;5.23;;;25.20;99.90;;;;;;5077293;28;20183;-73
2022/10/21 02:52:42;;;;;;;10.23;5.83;;;25.00;99.90;;;;;;5074557;28;20190;-74
2022/10/21 02:55:10;;;;;;;9.57;5.70;;;24.80;99.90;;;;;;5093393;28;20236;-74
2022/10/21 02:57:37;;;;;;;9.67;5.80;;;24.60;99.90;;;;;;5094574;28;20218;-74
2022/10/21 03:00:06;;;;;;;6.60;5.00;;;24.70;99.90;;;;;;5078521;28;20222;-74
2022/10/21 03:02:35;;;;;;;7.80;6.20;;;24.50;99.90;;;;;;5073992;28;20227;-74
2022/10/21 03:05:02;;;;;;;8.43;5.30;;;24.50;99.90;;;;;;5074202;28;20176;-73
2022/10/21 03:07:31;;;;;;;7.13;5.63;;;24.90;99.90;;;;;;5074123;28;20592;-73
2022/10/21 03:09:59;;;;;;;6.40;5.17;;;25.30;99.90;;;;;;5088336;28;20171;-74
2022/10/21 03:12:27;;;;;;;6.43;5.07;;;25.50;99.90;;;;;;5094351;28;20225;-75
2022/10/21 03:14:55;;;;;;;9.77;5.03;;;25.60;99.90;;;;;;5094014;28;20171;-74
2022/10/21 03:17:22;;;;;;;6.83;4.80;;;25.70;99.90;;;;;;5086633;28;22037;-74
2022/10/21 03:19:50;;;;;;;6.83;5.37;;;25.50;99.90;;;;;;5086831;28;20191;-74
2022/10/21 03:22:18;;;;;;;9.30;5.23;;;25.50;99.90;;;;;;5082241;28;20167;-74
2022/10/21 03:24:46;;;;;;;6.50;4.97;;;25.20;99.90;;;;;;5082210;28;20710;-75
2022/10/21 03:27:13;;;;;;;7.37;5.50;;;25.20;99.90;;;;;;5093211;28;20183;-73
2022/10/21 03:29:41;;;;;;;6.70;5.07;;;25.10;99.90;;;;;;5062566;28;20595;-74
2022/10/21 03:32:11;;;;;;;8.00;5.13;;;25.00;99.90;;;;;;5084831;28;20210;-74
2022/10/21 03:34:39;;;;;;;7.10;4.97;;;24.90;99.90;;;;;;5094045;28;20164;-74
2022/10/21 03:37:07;;;;;;;5.23;3.20;;;24.70;99.90;;;;;;5093892;28;20186;-74
2022/10/21 03:39:34;;;;;;;3.53;3.07;;;24.50;99.90;;;;;;5083042;28;20215;-73
2022/10/21 03:42:02;;;;;;;4.50;2.60;;;24.00;99.90;;;;;;5073587;28;20180;-73
2022/10/21 03:44:30;;;;;;;4.13;2.47;;;23.50;99.90;;;;;;5073898;28;20172;-74
2022/10/21 03:46:58;;;;;;;2.07;1.60;;;23.10;99.90;;;;;;5073543;28;20171;-74
2022/10/21 03:49:26;;;;;;;3.50;1.97;;;22.60;99.90;;;;;;5090145;28;20266;-74
2022/10/21 03:51:53;;;;;;;4.20;2.07;;;22.30;99.90;;;;;;5093594;28;20179;-75
2022/10/21 03:54:21;;;;;;;5.47;2.80;;;22.00;99.90;;;;;;5093499;28;20168;-74
2022/10/21 03:56:49;;;;;;;8.93;3.13;;;21.70;99.90;;;;;;5075381;28;20683;-74
2022/10/21 03:59:17;;;;;;;11.17;3.93;;;21.20;99.90;;;;;;5092495;28;20215;-73
2022/10/21 04:01:47;;;;;;;9.67;3.03;;;20.70;99.90;;;;;;5093027;28;20234;-73
2022/10/21 04:04:14;;;;;;;5.97;2.60;;;20.50;99.90;;;;;;5093328;28;20259;-73
2022/10/21 04:06:42;;;;;;;6.07;2.60;;;20.40;99.90;;;;;;5069770;28;20178;-73
2022/10/21 04:09:10;;;;;;;3.73;2.77;;;20.40;99.90;;;;;;5061316;28;20184;-73
2022/10/21 04:11:38;;;;;;;6.60;3.03;;;20.60;99.90;;;;;;5093095;28;20177;-73
2022/10/21 04:14:06;;;;;;;10.63;2.90;;;20.90;99.90;;;;;;5093161;28;20540;-73
2022/10/21 04:16:34;;;;;;;9.33;3.00;;;21.10;99.90;;;;;;5081672;28;20686;-74
2022/10/21 04:19:02;;;;;;;5.87;3.10;;;21.30;99.90;;;;;;5077355;28;20269;-73
2022/10/21 04:21:30;;;;;;;5.87;2.90;;;21.50;99.90;;;;;;5093167;28;20178;-73
2022/10/21 04:24:01;;;;;;;8.00;3.17;;;21.80;99.90;;;;;;5092936;28;20191;-73
2022/10/21 04:26:28;;;;;;;6.33;2.63;;;22.10;99.90;;;;;;5077639;28;20672;-74
2022/10/21 04:28:56;;;;;;;4.83;3.00;;;22.30;99.90;;;;;;5073686;28;20207;-72
2022/10/21 04:31:24;;;;;;;6.27;2.43;;;22.50;99.90;;;;;;5072623;28;20310;-73
2022/10/21 04:33:52;;;;;;;4.30;2.50;;;22.60;99.90;;;;;;5072454;28;20762;-73
2022/10/21 04:36:20;;;;;;;3.80;2.30;;;22.70;99.90;;;;;;5072514;28;20175;-73
2022/10/21 04:38:48;;;;;;;4.73;2.93;;;23.30;99.90;;;;;;5072656;28;20334;-74
2022/10/21 04:41:16;;;;;;;5.63;2.30;;;23.90;99.90;;;;;;5072030;28;20180;-74
2022/10/21 04:43:43;;;;;;;3.27;1.87;;;23.80;99.90;;;;;;5076093;28;20178;-74
2022/10/21 04:46:15;;;;;;;5.00;2.20;;;23.60;99.90;;;;;;5092729;28;20214;-73
2022/10/21 04:48:44;;;;;;;4.20;2.17;;;23.50;99.90;;;;;;5092312;28;20261;-74
2022/10/21 04:51:11;;;;;;;4.90;2.20;;;23.30;99.90;;;;;;5092390;28;20175;-74
2022/10/21 04:53:39;;;;;;;3.73;2.40;;;23.10;99.90;;;;;;5091822;28;20179;-73
2022/10/21 04:56:07;;;;;;;6.23;2.23;;;23.00;99.90;;;;;;5092654;28;20173;-74
2022/10/21 04:58:35;;;;;;;4.43;2.33;;;23.10;99.90;;;;;;5073878;28;20222;-74
2022/10/21 05:01:03;;;;;;;10.93;5.97;;;23.00;99.90;;;;;;5092158;28;20234;-74
2022/10/21 05:03:31;;;;;;;7.63;3.07;;;22.90;99.90;;;;;;5089641;28;20325;-73
2022/10/21 05:05:59;;;;;;;6.17;2.30;;;22.90;99.90;;;;;;5072009;28;20168;-74
2022/10/21 05:08:26;;;;;;;4.07;2.37;;;22.90;99.90;;;;;;5072306;28;20259;-72
2022/10/21 05:11:01;;;;;;;3.83;2.10;;;23.30;99.90;;;;;;5054112;28;20264;-74
2022/10/21 05:13:29;;;;;;;5.83;2.17;;;23.80;99.90;;;;;;5088244;28;20520;-73
2022/10/21 05:16:02;;;;;;;4.07;2.07;;;24.20;99.90;;;;;;5071834;28;20176;-73
2022/10/21 05:18:30;;;;;;;5.67;1.90;;;24.60;99.90;;;;;;5071692;28;20596;-74
2022/10/21 05:20:58;;;;;;;7.60;2.27;;;24.60;99.90;;;;;;5071751;28;20199;-75
2022/10/21 05:23:26;;;;;;;8.30;2.30;;;24.70;99.90;;;;;;5071976;28;20274;-74
2022/10/21 05:25:54;;;;;;;2.80;1.80;;;24.80;99.90;;;;;;5091879;28;20297;-74
2022/10/21 05:28:22;;;;;;;3.93;1.87;;;24.70;99.90;;;;;;5091641;28;20246;-74
2022/10/21 05:30:51;;;;;;;2.80;1.73;;;24.70;99.90;;;;;;5091844;28;20175;-74
2022/10/21 05:33:19;;;;;;;4.90;1.60;;;24.90;99.90;;;;;;5091980;28;20174;-74
2022/10/21 05:35:56;;;;;;;2.10;1.37;;;25.10;99.90;;;;;;5091407;28;20236;-74
2022/10/21 05:38:24;;;;;;;4.67;1.80;;;25.30;99.90;;;;;;5091814;28;20206;-74
2022/10/21 05:40:52;;;;;;;4.07;1.23;;;25.50;99.90;;;;;;5079398;28;20201;-73
2022/10/21 05:43:20;;;;;;;2.50;1.03;;;25.40;99.90;;;;;;5071603;28;20271;-72
2022/10/21 05:45:48;;;;;;;3.20;1.20;;;25.40;99.90;;;;;;5090954;28;20261;-73
2022/10/21 05:51:38;;;;;;;3.00;0.80;;;25.10;99.90;;;;;;5090959;28;20244;-74
2022/10/21 05:54:06;;;;;;;2.27;0.90;;;24.70;99.90;;;;;;5095447;28;20273;-74
2022/10/21 05:56:33;;;;;;;1.60;1.03;;;24.70;99.90;;;;;;5095839;28;20574;-74
2022/10/21 05:59:40;;;;;;;4.57;1.30;;;24.60;99.90;;;;;;5093779;28;20218;-74
2022/10/21 06:02:10;;;;;;;2.30;0.90;;;24.60;99.90;;;;;;5095500;28;20234;-73
2022/10/21 06:04:37;;;;;;;1.83;1.03;;;24.50;99.90;;;;;;5088614;28;20190;-74
2022/10/21 06:07:05;;;;;;;5.33;0.97;;;24.40;99.90;;;;;;5075561;28;20202;-73
2022/10/21 06:09:33;;;;;;;1.43;0.80;;;24.30;99.90;;;;;;5093273;28;20179;-74
2022/10/21 06:12:01;;;;;;;7.40;1.37;;;24.20;99.90;;;;;;5096031;28;20195;-73
2022/10/21 06:14:29;;;;;;;5.47;1.47;;;24.10;99.90;;;;;;5090082;28;20195;-74
2022/10/21 06:16:56;;;;;;;5.10;1.43;;;24.00;99.90;;;;;;5075139;28;20187;-73
2022/10/21 06:19:24;;;;;;;4.93;1.17;;;23.80;99.90;;;;;;5074892;28;20279;-73
2022/10/21 06:21:53;;;;;;;3.57;1.27;;;23.70;99.90;;;;;;5074991;28;20208;-73
2022/10/21 06:24:21;;;;;;;3.97;1.20;;;23.70;99.90;;;;;;5078689;28;20536;-73
2022/10/21 06:26:51;;;;;;;3.87;1.47;;;23.70;99.90;;;;;;5095398;28;20210;-75
2022/10/21 06:29:19;;;;;;;4.50;1.30;;;23.60;99.90;;;;;;5095276;28;20258;-74
2022/10/21 06:31:46;;;;;;;2.20;0.77;;;23.60;99.90;;;;;;5076997;28;20543;-74
2022/10/21 06:34:14;;;;;;;1.70;0.97;;;23.60;99.90;;;;;;5074005;28;20182;-72
2022/10/21 06:36:42;;;;;;;1.93;0.97;;;23.40;99.90;;;;;;5074955;28;20254;-73
2022/10/21 06:39:10;;;;;;;2.80;1.33;;;23.40;99.90;;;;;;5056723;28;20234;-74
2022/10/21 06:41:38;;;;;;;2.63;1.10;;;23.40;99.90;;;;;;5088542;28;20182;-73
2022/10/21 06:44:05;;;;;;;2.50;1.10;;;23.40;99.90;;;;;;5076002;28;20175;-73
2022/10/21 06:46:33;;;;;;;3.17;1.40;;;23.50;99.90;;;;;;5094990;28;20178;-74
2022/10/21 06:49:01;;;;;;;4.73;1.80;;;23.40;99.90;;;;;;5094442;28;20190;-74
2022/10/21 06:51:29;;;;;;;4.33;1.93;;;23.30;99.90;;;;;;5094659;28;20540;-74
2022/10/21 06:53:58;;;;;;;5.07;1.93;;;23.20;99.90;;;;;;5094293;28;20205;-73
2022/10/21 06:56:27;;;;;;;7.73;2.10;;;23.10;99.90;;;;;;5056329;28;20186;-74
2022/10/21 06:58:57;;;;;;;7.77;2.20;;;23.10;99.90;;;;;;5056118;28;20230;-75
2022/10/21 07:01:27;;;;;;;4.90;1.70;;;23.00;99.90;;;;;;5073914;28;20266;-74
2022/10/21 07:03:55;;;;;;;6.93;2.10;;;23.00;99.90;;;;;;5073811;28;20620;-74
2022/10/21 07:06:23;;;;;;;7.57;2.13;;;22.90;99.90;;;;;;5093848;28;20651;-71
2022/10/21 07:08:51;;;;;;;4.67;1.93;;;22.80;99.90;;;;;;5087350;28;20188;-74
2022/10/21 07:11:19;;;;;;;6.47;1.70;;;22.80;99.90;;;;;;5074031;28;20620;-74
2022/10/21 07:13:47;;;;;;;8.47;2.00;;;22.70;99.90;;;;;;5055822;28;20187;-73
2022/10/21 07:16:27;;;;;;;7.87;2.10;;;22.70;99.90;;;;;;5089249;28;20186;-73
2022/10/21 07:18:55;;;;;;;9.10;1.70;;;22.60;99.90;;;;;;5094154;28;20672;-73
2022/10/21 07:21:25;;;;;;;4.60;1.80;;;22.60;99.90;;;;;;5093971;28;20265;-74
2022/10/21 07:23:55;;;;;;;6.93;1.60;;;22.50;99.90;;;;;;5076857;28;20179;-72
2022/10/21 07:26:24;;;;;;;6.37;1.43;;;22.50;99.90;;;;;;5079924;28;20653;-73
2022/10/21 07:28:53;;;;;;;4.63;1.40;;;22.40;99.90;;;;;;5075834;28;20261;-72
2022/10/21 07:31:22;;;;;;;5.53;1.50;;;22.30;99.90;;;;;;5073742;28;20176;-73
2022/10/21 07:33:49;;;;;;;8.10;1.77;;;22.30;99.90;;;;;;5077399;28;20636;-73
2022/10/21 07:36:20;;;;;;;5.03;1.70;;;22.20;99.90;;;;;;5092105;28;20588;-73
2022/10/21 07:38:49;;;;;;;3.77;1.60;;;22.10;99.90;;;;;;5073598;28;20299;-73
2022/10/21 07:41:23;;;;;;;7.17;1.70;;;22.10;99.90;;;;;;5073533;28;20172;-74
2022/10/21 07:43:53;;;;;;;12.60;1.60;;;22.00;99.90;;;;;;5077097;28;20238;-73
2022/10/21 07:46:21;;;;;;;4.43;1.50;;;22.00;99.90;;;;;;5093911;28;20267;-73
2022/10/21 07:48:50;;;;;;;4.43;1.47;;;22.00;99.90;;;;;;5086725;28;20179;-73
2022/10/21 07:51:21;;;;;;;4.40;1.67;;;21.90;99.90;;;;;;5073502;28;20186;-72
2022/10/21 07:53:55;;;;;;;2.10;1.20;;;21.90;99.90;;;;;;5076437;28;20213;-73
2022/10/21 07:56:28;;;;;;;5.40;0.93;;;21.80;99.90;;;;;;5093841;28;20220;-73
2022/10/21 07:58:57;;;;;;;4.90;1.43;;;21.70;99.90;;;;;;5093345;28;20226;-73
2022/10/21 08:01:25;;;;;;;4.73;1.00;;;21.60;99.90;;;;;;5093150;28;20224;-73
2022/10/21 08:03:54;;;;;;;4.23;1.33;;;21.50;99.90;;;;;;5091913;28;20264;-73
2022/10/21 08:06:23;;;;;;;2.97;1.00;;;21.50;99.90;;;;;;5073056;28;20238;-73
2022/10/21 08:08:51;;;;;;;3.80;1.00;;;21.40;99.90;;;;;;5072878;28;20643;-73
2022/10/21 08:11:24;;;;;;;5.20;1.23;;;21.30;99.90;;;;;;5072663;28;20203;-72
2022/10/21 08:13:53;;;;;;;4.80;1.30;;;21.30;99.90;;;;;;5078629;28;20200;-73
2022/10/21 08:16:22;;;;;;;4.03;1.20;;;21.20;99.90;;;;;;5074184;28;20884;-74
2022/10/21 08:18:50;;;;;;;4.47;1.20;;;21.10;99.90;;;;;;5093095;28;20206;-73
2022/10/21 08:21:18;;;;;;;5.57;1.50;;;21.00;99.90;;;;;;5092846;28;20167;-74
2022/10/21 08:23:46;;;;;;;4.03;1.30;;;20.90;99.90;;;;;;5092358;28;20653;-74
2022/10/21 08:26:15;;;;;;;3.00;1.40;;;20.90;99.90;;;;;;5092544;28;20648;-74
2022/10/21 08:28:43;;;;;;;5.50;1.43;;;20.80;99.90;;;;;;5092901;28;20193;-73
2022/10/21 08:31:16;;;;;;;4.57;1.27;;;20.70;99.90;;;;;;5090085;28;20714;-73
2022/10/21 08:33:45;;;;;;;3.67;1.10;;;20.70;99.90;;;;;;5072543;28;20618;-72
2022/10/21 08:36:16;;;;;;;7.83;2.20;;;20.60;99.90;;;;;;5072444;28;20665;-73
2022/10/21 08:38:44;;;;;;;6.93;1.80;;;20.50;99.90;;;;;;5081838;28;20212;-73
2022/10/21 08:41:30;;;;;;;5.97;1.43;;;20.50;99.90;;;;;;5092492;28;20663;-73
2022/10/21 08:44:11;;;;;;;6.30;1.80;;;20.40;99.90;;;;;;5092215;28;21534;-73
2022/10/21 08:46:45;;;;;;;7.80;1.93;;;20.30;99.90;;;;;;5074352;28;20175;-73
2022/10/21 08:49:20;;;;;;;5.70;1.90;;;20.30;99.90;;;;;;5079329;28;20184;-73
2022/10/21 08:51:53;;;;;;;8.70;2.20;;;20.20;99.90;;;;;;5072469;28;20582;-73
2022/10/21 08:54:46;;;;;;;7.33;1.83;;;20.20;99.90;;;;;;5072211;28;20183;-73
2022/10/21 08:57:14;;;;;;;8.33;1.97;;;20.20;99.90;;;;;;5072011;28;20176;-73
2022/10/21 08:59:42;;;;;;;6.23;1.30;;;20.30;99.90;;;;;;5085937;28;20249;-73
2022/10/21 09:02:21;;;;;;;5.87;1.50;;;20.40;99.90;;;;;;5076342;28;20225;-74
2022/10/21 09:05:21;;;;;;;9.53;1.97;;;20.30;99.90;;;;;;5100155;28;20175;-72
2022/10/21 09:08:08;;;;;;;6.63;2.00;;;20.40;99.90;;;;;;5091556;28;20202;-72
2022/10/21 09:10:57;;;;;;;7.03;2.23;;;20.30;99.90;;;;;;5073375;28;20657;-72
2022/10/21 09:13:45;;;;;;;7.57;2.10;;;20.40;99.90;;;;;;5071715;28;20194;-73
2022/10/21 09:16:34;;;;;;;13.03;2.10;;;20.20;99.90;;;;;;5082030;28;20179;-73
2022/10/21 09:19:22;;;;;;;10.50;2.27;;;20.20;99.90;;;;;;5088157;28;20223;-72
2022/10/21 09:22:09;;;;;;;9.00;3.50;;;20.20;99.90;;;;;;5071696;28;20173;-72
2022/10/21 09:25:04;;;;;;;5.43;2.07;;;20.10;99.90;;;;;;5071738;28;20196;-72
2022/10/21 09:27:32;;;;;;;5.63;2.00;;;20.10;99.90;;;;;;5084776;28;20234;-73
2022/10/21 09:30:05;;;;;;;9.50;3.13;;;20.00;99.90;;;;;;5078709;28;20652;-72
2022/10/21 09:32:37;;;;;;;9.47;2.90;;;20.00;99.90;;;;;;5073548;28;20270;-73
2022/10/21 09:35:22;;;;;;;4.57;2.40;;;19.90;99.90;;;;;;5085673;28;20270;-73
2022/10/21 09:38:17;;;;;;;3.50;1.80;;;19.80;99.90;;;;;;5053467;28;20326;-73
2022/10/21 09:40:47;;;;;;;4.73;1.97;;;19.80;99.90;;;;;;5086486;28;20183;-72
2022/10/21 09:43:24;;;;;;;11.83;2.50;;;19.70;99.90;;;;;;5068522;28;20281;-72
2022/10/21 09:45:52;;;;;;;6.53;2.43;;;19.60;99.90;;;;;;5082591;28;20200;-73
2022/10/21 09:48:24;;;;;;;7.83;3.27;;;19.50;99.90;;;;;;5088058;28;20539;-73
2022/10/21 09:51:19;;;;;;;5.50;3.67;;;19.50;99.90;;;;;;5071544;28;20190;-74
2022/10/21 09:53:53;;;;;;;5.20;3.20;;;19.30;99.90;;;;;;5071031;28;20223;-72
2022/10/21 09:56:42;;;;;;;6.47;3.53;;;19.30;99.90;;;;;;5071499;28;20207;-72
2022/10/21 09:59:17;;;;;;;5.87;3.40;;;19.20;99.90;;;;;;5083339;28;20219;-73
2022/10/21 10:01:47;;;;;;;6.37;3.27;;;19.10;99.90;;;;;;5070966;28;20308;-73
2022/10/21 10:04:30;;;;;;;5.97;3.30;;;19.10;99.90;;;;;;5087560;28;20183;-73
2022/10/21 10:07:01;;;;;;;5.40;3.10;;;19.00;99.90;;;;;;5090032;28;20212;-74
2022/10/21 10:09:31;;;;;;;11.03;4.30;;;19.00;99.90;;;;;;5078706;28;20690;-73
2022/10/21 10:12:20;;;;;;;7.23;3.03;;;18.90;99.90;;;;;;5091456;28;20168;-73
2022/10/21 10:14:48;;;;;;;6.43;3.10;;;18.90;99.90;;;;;;5076713;28;20267;-73
2022/10/21 10:17:30;;;;;;;6.37;3.30;;;19.00;99.90;;;;;;5081626;28;20209;-74
2022/10/21 10:20:04;;;;;;;5.57;3.27;;;19.00;99.90;;;;;;5078947;28;20191;-73
2022/10/21 10:22:40;;;;;;;5.63;2.90;;;19.00;99.90;;;;;;5077029;28;20192;-74
2022/10/21 10:25:24;;;;;;;5.20;3.03;;;19.00;99.90;;;;;;5071184;28;20232;-74
2022/10/21 10:27:58;;;;;;;7.20;2.80;;;18.90;99.90;;;;;;5071397;28;20175;-72
2022/10/21 10:30:47;;;;;;;7.30;3.17;;;18.90;99.90;;;;;;5071186;28;20183;-73
2022/10/21 10:33:22;;;;;;;7.17;4.07;;;19.00;99.90;;;;;;5070883;28;20238;-72
2022/10/21 10:35:58;;;;;;;7.57;3.20;;;19.00;99.90;;;;;;5071236;28;20189;-72
2022/10/21 10:38:35;;;;;;;4.93;3.03;;;19.00;99.90;;;;;;5074684;28;20220;-73
2022/10/21 10:41:05;;;;;;;8.10;4.33;;;18.90;99.90;;;;;;5095110;28;20274;-73
2022/10/21 10:43:36;;;;;;;7.00;3.63;;;19.00;99.90;;;;;;5095061;28;20175;-73
2022/10/21 10:46:14;;;;;;;5.17;3.80;;;19.00;99.90;;;;;;5087884;28;20180;-73
2022/10/21 10:48:45;;;;;;;6.13;3.47;;;19.00;99.90;;;;;;5074656;28;20215;-74
2022/10/21 10:51:31;;;;;;;5.57;3.37;;;18.90;99.90;;;;;;5074662;28;20171;-74
2022/10/21 10:54:20;;;;;;;5.23;3.60;;;18.90;99.90;;;;;;5073846;28;20186;-73
2022/10/21 10:56:59;;;;;;;5.60;3.63;;;18.90;99.90;;;;;;5090557;28;20179;-74
2022/10/21 10:59:42;;;;;;;6.10;3.40;;;18.90;99.90;;;;;;5076062;28;20222;-73
2022/10/21 11:02:11;;;;;;;6.50;3.30;;;18.90;99.90;;;;;;5094498;28;20320;-73
2022/10/21 11:05:22;;;;;;;6.73;3.70;;;18.90;99.90;;;;;;5094750;28;20183;-73
2022/10/21 11:08:17;;;;;;;6.93;3.43;;;18.80;99.90;;;;;;5047968;28;20281;-72
2022/10/21 11:11:01;;;;;;;7.90;3.60;;;18.70;99.90;;;;;;5093831;28;20729;-73
2022/10/21 11:13:29;;;;;;;9.50;3.90;;;18.60;99.90;;;;;;5093684;28;20195;-73
2022/10/21 11:16:30;;;;;;;6.43;3.30;;;18.60;99.90;;;;;;5085483;28;20209;-73
2022/10/21 11:19:21;;;;;;;5.87;3.10;;;18.50;99.90;;;;;;5072253;28;20213;-73
2022/10/21 11:22:10;;;;;;;6.37;3.30;;;18.50;99.90;;;;;;5095244;28;20653;-72
2022/10/21 11:25:03;;;;;;;6.70;3.30;;;18.50;99.90;;;;;;5077279;28;20545;-71
2022/10/21 11:28:08;;;;;;;7.87;4.63;;;18.40;99.90;;;;;;5075358;28;20175;-73
2022/10/21 11:30:42;;;;;;;6.57;3.13;;;18.40;99.90;;;;;;5040930;28;20700;-73
2022/10/21 11:33:51;;;;;;;7.37;4.40;;;18.40;99.90;;;;;;5095501;28;20178;-72
2022/10/21 11:36:33;;;;;;;8.07;4.03;;;18.30;99.90;;;;;;4983287;28;20191;-72
2022/10/21 11:39:45;;;;;;;13.00;4.77;;;18.30;99.90;;;;;;5073149;28;20224;-72
2022/10/21 11:42:30;;;;;;;10.87;5.30;;;18.30;99.90;;;;;;5071312;28;20191;-72
2022/10/21 11:45:06;;;;;;;13.87;4.33;;;18.30;99.90;;;;;;5079085;28;20174;-72
2022/10/21 11:47:53;;;;;;;11.77;4.50;;;18.30;99.90;;;;;;5077272;28;20179;-72
2022/10/21 11:50:59;;;;;;;8.03;4.03;;;18.20;99.90;;;;;;5094259;28;20175;-72
2022/10/21 11:53:44;;;;;;;10.23;3.73;;;18.20;99.90;;;;;;5078335;28;20187;-72
2022/10/21 11:56:32;;;;;;;5.77;3.43;;;18.10;99.90;;;;;;5088478;28;20600;-72
2022/10/21 11:59:18;;;;;;;8.80;3.43;;;18.20;99.90;;;;;;5094887;28;20207;-72
2022/10/21 12:05:20;;;;;;;6.43;2.70;;;18.10;99.90;;;;;;5092494;28;20260;-72
2022/10/21 12:08:06;;;;;;;9.43;2.83;;;18.00;99.90;;;;;;5076856;28;20194;-72
2022/10/21 12:14:40;;;;;;;6.10;2.40;;;18.00;99.90;;;;;;5094821;28;20191;-73
2022/10/21 12:17:15;;;;;;;10.33;3.10;;;17.90;99.90;;;;;;5081139;28;20172;-73
2022/10/21 12:19:51;;;;;;;10.23;3.60;;;17.90;99.90;;;;;;5074935;28;20210;-72
2022/10/21 12:22:19;;;;;;;11.50;3.03;;;17.90;99.90;;;;;;5074672;28;20178;-73
2022/10/21 12:24:51;;;;;;;5.60;2.40;;;17.90;99.90;;;;;;5074480;28;20208;-72
2022/10/21 12:27:42;;;;;;;9.33;2.80;;;17.80;99.90;;;;;;5074771;28;20187;-72
2022/10/21 12:30:34;;;;;;;10.07;2.97;;;17.80;99.90;;;;;;5074270;28;20173;-72
2022/10/21 12:33:29;;;;;;;13.00;3.17;;;17.80;99.90;;;;;;5074276;28;20176;-71
2022/10/21 12:36:24;;;;;;;7.87;2.60;;;17.80;99.90;;;;;;5074601;28;20191;-72
2022/10/21 12:39:01;;;;;;;7.50;2.43;;;17.70;99.90;;;;;;5073877;28;20235;-72
2022/10/21 12:41:28;;;;;;;11.40;3.03;;;17.60;99.90;;;;;;5056097;28;20187;-71
2022/10/21 12:43:56;;;;;;;9.57;2.70;;;17.70;99.90;;;;;;5074201;28;20229;-72
2022/10/21 12:46:27;;;;;;;9.47;3.40;;;17.60;99.90;;;;;;5075950;28;20183;-71
2022/10/21 12:48:56;;;;;;;7.90;4.07;;;17.70;99.90;;;;;;5093459;28;20213;-72
2022/10/21 12:51:29;;;;;;;10.10;4.13;;;17.60;99.90;;;;;;5094231;28;20175;-72
2022/10/21 12:54:12;;;;;;;6.00;3.00;;;17.60;99.90;;;;;;5094133;28;20174;-72
2022/10/21 12:56:57;;;;;;;6.40;3.33;;;17.60;99.90;;;;;;5084262;28;20178;-71
2022/10/21 12:59:32;;;;;;;5.63;2.37;;;17.50;99.90;;;;;;5094016;28;20215;-72
2022/10/21 13:02:09;;;;;;;9.67;3.20;;;17.50;99.90;;;;;;5089918;28;20242;-72
2022/10/21 13:04:36;;;;;;;5.67;2.70;;;17.50;99.90;;;;;;5073747;28;20207;-72
2022/10/21 13:07:18;;;;;;;6.10;2.90;;;17.40;99.90;;;;;;5073444;28;20186;-71
2022/10/21 13:09:52;;;;;;;9.40;3.27;;;17.40;99.90;;;;;;5073570;28;20583;-72
2022/10/21 13:12:23;;;;;;;4.40;2.50;;;17.40;99.90;;;;;;5055471;28;20187;-72
2022/10/21 13:14:55;;;;;;;6.23;2.40;;;17.40;99.90;;;;;;5073842;28;20188;-72
2022/10/21 13:17:22;;;;;;;6.73;2.37;;;17.40;99.90;;;;;;5068500;28;20647;-72
2022/10/21 13:20:19;;;;;;;7.20;2.67;;;17.30;99.90;;;;;;5093888;28;20210;-73
2022/10/21 13:22:57;;;;;;;8.87;2.77;;;17.30;99.90;;;;;;5092410;28;20708;-73
2022/10/21 13:25:32;;;;;;;8.20;2.50;;;17.30;99.90;;;;;;5073543;28;20194;-72
2022/10/21 13:28:12;;;;;;;10.93;2.97;;;17.20;99.90;;;;;;5073604;28;20202;-73
2022/10/21 13:30:50;;;;;;;11.57;2.87;;;17.30;99.90;;;;;;5073360;28;20171;-72